< < Back
Terminal Aerodrome Forecast


Current Version              Previous Versions:   1  2  3  4  5  6  7  8  9  

Terminal Aerodrome Forecast

043
FTUS42 KFFC 222300
TAFATL
TAF
KATL 222328Z 2300/2406 30006KT P6SM FEW250
     FM231500 32008KT P6SM FEW035
     FM231700 33008KT P6SM SCT045 PROB30 2318/2322 -TSRA BKN035CB
     FM240200 34006KT P6SM SCT250=



Latest METAR

995
SAUS70 KWBC 230500 RRB
MTRATL
METAR KATL 230452Z 31005KT 10SM FEW250 27/22 A3004 RMK AO2 SLP159
T02670222 403390233 $


USA.gov is the U.S. government's official web portal to all federal, state and local government web resources and services.